Time;durP1;ratioP1;P1;durP2;ratioP2;P2;SDS_P1;SDS_P2;PMS_P1;PMS_P2;Temp;Humidity;BMP_temperature;BMP_pressure;BME280_temperature;BME280_humidity;BME280_pressure;Samples;Min_cycle;Max_cycle;Signal;HPM_P1;HPM_P2
2021/08/17 00:02:16;;;;;;;2.10;0.80;;;15.30;85.10;;;;;;4936512;29;20187;-63
2021/08/17 00:04:46;;;;;;;1.13;0.53;;;15.40;84.60;;;;;;4943508;28;20178;-65
2021/08/17 00:07:14;;;;;;;1.47;0.77;;;15.40;84.20;;;;;;4940693;28;20195;-58
2021/08/17 00:09:41;;;;;;;3.53;1.00;;;15.60;84.70;;;;;;4956229;28;20179;-65
2021/08/17 00:12:08;;;;;;;2.97;0.90;;;15.60;84.40;;;;;;4952842;28;20685;-61
2021/08/17 00:14:36;;;;;;;2.00;0.70;;;15.70;84.30;;;;;;4956307;29;20191;-65
2021/08/17 00:17:08;;;;;;;1.57;0.70;;;15.70;84.10;;;;;;4946522;28;20180;-68
2021/08/17 00:19:40;;;;;;;2.90;0.93;;;15.80;84.10;;;;;;4957470;28;20262;-65
2021/08/17 00:22:10;;;;;;;1.23;0.70;;;15.80;83.80;;;;;;4942373;28;20195;-68
2021/08/17 00:24:38;;;;;;;2.93;0.73;;;15.80;83.30;;;;;;4955653;28;20278;-60
2021/08/17 00:27:05;;;;;;;2.23;1.07;;;16.20;83.60;;;;;;4952580;29;20250;-60
2021/08/17 00:29:33;;;;;;;1.73;0.73;;;16.30;81.80;;;;;;4967355;28;20595;-66
2021/08/17 00:32:00;;;;;;;1.20;0.63;;;16.30;82.80;;;;;;4963922;28;20198;-61
2021/08/17 00:34:28;;;;;;;1.17;0.63;;;16.40;81.20;;;;;;4965978;28;20184;-68
2021/08/17 00:36:57;;;;;;;4.87;1.33;;;16.40;81.10;;;;;;4962281;28;20197;-66
2021/08/17 00:39:24;;;;;;;2.97;0.80;;;16.50;80.90;;;;;;4956774;28;20315;-66
2021/08/17 00:41:52;;;;;;;2.93;1.17;;;16.40;81.90;;;;;;4958413;28;20192;-62
2021/08/17 00:44:26;;;;;;;1.40;0.70;;;16.50;80.70;;;;;;4952359;28;20197;-68
2021/08/17 00:47:00;;;;;;;3.90;0.97;;;16.40;79.20;;;;;;4951113;28;20190;-65
2021/08/17 00:49:29;;;;;;;2.20;0.40;;;16.60;79.20;;;;;;4963060;28;20265;-68
2021/08/17 00:52:00;;;;;;;1.37;0.60;;;16.60;78.10;;;;;;4945105;28;20914;-70
2021/08/17 00:54:28;;;;;;;1.17;0.70;;;16.60;79.00;;;;;;4950765;29;20568;-68
2021/08/17 00:57:00;;;;;;;1.00;0.60;;;16.70;78.80;;;;;;4953210;28;20277;-61
2021/08/17 00:59:29;;;;;;;3.30;0.60;;;16.90;78.50;;;;;;4955456;29;20654;-67
2021/08/17 01:01:57;;;;;;;2.10;0.60;;;17.00;76.90;;;;;;4955346;28;20260;-68
2021/08/17 01:04:24;;;;;;;1.97;0.57;;;17.20;75.90;;;;;;4971915;28;20541;-62
2021/08/17 01:06:52;;;;;;;2.37;0.83;;;17.30;76.90;;;;;;4966993;28;20234;-64
2021/08/17 01:09:19;;;;;;;4.30;0.60;;;17.40;76.80;;;;;;4952388;28;20198;-66
2021/08/17 01:11:48;;;;;;;1.53;0.47;;;17.50;76.20;;;;;;4952269;28;20216;-61
2021/08/17 01:14:21;;;;;;;3.13;0.70;;;17.50;75.10;;;;;;4971661;28;20744;-60
2021/08/17 01:16:50;;;;;;;2.80;0.50;;;17.60;76.20;;;;;;4962997;28;20196;-67
2021/08/17 01:19:19;;;;;;;3.77;0.53;;;17.80;75.50;;;;;;4950204;28;20201;-66
2021/08/17 01:21:48;;;;;;;1.13;0.50;;;18.00;75.30;;;;;;4950481;28;20214;-66
2021/08/17 01:24:19;;;;;;;0.90;0.50;;;18.20;74.90;;;;;;4974194;28;20645;-60
2021/08/17 01:26:47;;;;;;;0.93;0.50;;;18.30;71.00;;;;;;4958609;28;20654;-70
2021/08/17 01:29:16;;;;;;;1.93;0.70;;;18.30;70.80;;;;;;4975570;28;20186;-64
2021/08/17 01:31:43;;;;;;;1.43;0.50;;;18.30;70.50;;;;;;4972109;28;20222;-60
2021/08/17 01:34:11;;;;;;;0.63;0.50;;;18.60;70.50;;;;;;4966339;28;20178;-62
2021/08/17 01:36:39;;;;;;;1.60;0.53;;;18.70;69.60;;;;;;4965368;28;20626;-65
2021/08/17 01:39:06;;;;;;;4.27;0.67;;;18.90;69.60;;;;;;4952482;28;20285;-59
2021/08/17 01:41:34;;;;;;;3.90;0.70;;;19.10;69.10;;;;;;4959924;28;20554;-59
2021/08/17 01:44:06;;;;;;;1.80;0.50;;;19.20;69.10;;;;;;4962895;28;20233;-61
2021/08/17 01:46:34;;;;;;;0.73;0.43;;;19.50;68.60;;;;;;4974269;28;20245;-60
2021/08/17 01:49:01;;;;;;;2.73;0.83;;;19.50;68.60;;;;;;4972263;28;20183;-61
2021/08/17 01:51:28;;;;;;;0.90;0.43;;;19.70;67.90;;;;;;4963278;28;20237;-66
2021/08/17 01:53:56;;;;;;;1.17;0.50;;;19.50;66.80;;;;;;4958715;28;20179;-58
2021/08/17 01:56:23;;;;;;;3.57;0.80;;;19.50;65.30;;;;;;4954435;28;20242;-63
2021/08/17 01:58:50;;;;;;;0.40;0.40;;;19.40;65.20;;;;;;4945135;28;20190;-68
2021/08/17 02:01:18;;;;;;;1.17;0.50;;;19.40;65.20;;;;;;4948205;28;20191;-70
2021/08/17 02:03:45;;;;;;;0.47;0.33;;;19.60;65.90;;;;;;4955599;28;20554;-67
2021/08/17 02:06:14;;;;;;;0.60;0.50;;;19.90;64.80;;;;;;4949036;28;20188;-73
2021/08/17 02:08:41;;;;;;;0.70;0.60;;;19.80;64.70;;;;;;4944806;28;20195;-71
2021/08/17 02:11:09;;;;;;;2.33;0.50;;;20.20;64.90;;;;;;4949928;28;20219;-73
2021/08/17 02:13:36;;;;;;;2.03;0.50;;;20.40;64.30;;;;;;4943510;28;20299;-69
2021/08/17 02:16:04;;;;;;;0.50;0.50;;;20.30;64.10;;;;;;4951217;28;20210;-73
2021/08/17 02:18:34;;;;;;;4.17;0.70;;;20.40;63.90;;;;;;4953432;28;20579;-68
2021/08/17 02:21:03;;;;;;;1.90;0.77;;;20.40;64.00;;;;;;4948333;28;20680;-72
2021/08/17 02:23:32;;;;;;;2.23;0.77;;;20.60;64.70;;;;;;4953528;28;20207;-69
2021/08/17 02:26:00;;;;;;;2.63;0.60;;;20.80;64.80;;;;;;4955190;28;20195;-71
2021/08/17 02:28:27;;;;;;;0.93;0.40;;;21.10;64.20;;;;;;4946158;28;20191;-71
2021/08/17 02:30:55;;;;;;;1.00;0.50;;;21.30;64.50;;;;;;4953813;28;20226;-71
2021/08/17 02:33:22;;;;;;;1.80;0.80;;;20.90;64.10;;;;;;4952892;28;20199;-63
2021/08/17 02:35:49;;;;;;;1.63;0.80;;;20.80;64.30;;;;;;4948218;28;20183;-67
2021/08/17 02:38:17;;;;;;;3.33;0.50;;;21.40;64.10;;;;;;4952010;28;20393;-69
2021/08/17 02:40:44;;;;;;;1.73;0.80;;;21.60;62.90;;;;;;4948759;28;20637;-60
2021/08/17 02:43:12;;;;;;;1.53;0.80;;;21.40;62.90;;;;;;4955891;28;20273;-60
2021/08/17 02:45:39;;;;;;;6.73;1.20;;;21.20;62.70;;;;;;4945633;28;20203;-61
2021/08/17 02:48:07;;;;;;;0.87;0.40;;;21.50;63.10;;;;;;4957404;28;20174;-60
2021/08/17 02:50:35;;;;;;;1.23;0.53;;;21.60;61.90;;;;;;4960804;28;20249;-61
2021/08/17 02:53:03;;;;;;;0.87;0.50;;;21.70;61.90;;;;;;4947646;28;20641;-61
2021/08/17 02:55:30;;;;;;;2.60;1.10;;;22.00;61.00;;;;;;4942472;28;20195;-60
2021/08/17 02:58:06;;;;;;;1.17;0.50;;;22.20;60.70;;;;;;4949062;28;20182;-61
2021/08/17 03:00:41;;;;;;;1.77;0.50;;;21.80;61.00;;;;;;4969657;28;20695;-68
2021/08/17 03:03:13;;;;;;;1.80;0.70;;;21.60;60.70;;;;;;4930585;29;20713;-68
2021/08/17 03:05:43;;;;;;;4.33;0.60;;;21.00;60.80;;;;;;4951112;28;20184;-69
2021/08/17 03:08:16;;;;;;;2.90;0.40;;;21.70;60.80;;;;;;4962193;28;20175;-69
2021/08/17 03:10:44;;;;;;;1.50;0.50;;;22.30;60.00;;;;;;4946751;28;20215;-64
2021/08/17 03:13:11;;;;;;;0.87;0.50;;;21.70;59.10;;;;;;4945327;28;20227;-69
2021/08/17 03:15:54;;;;;;;1.67;0.60;;;21.40;59.90;;;;;;4978678;28;20185;-66
2021/08/17 03:18:53;;;;;;;;;;;;;;;;;;;;;
2021/08/17 03:21:22;;;;;;;0.87;0.43;;;22.00;60.60;;;;;;4954690;28;20201;-63
2021/08/17 03:23:50;;;;;;;2.30;0.73;;;22.40;59.60;;;;;;4974460;28;20679;-61
2021/08/17 03:26:18;;;;;;;0.63;0.40;;;22.70;58.40;;;;;;4970579;28;20194;-69
2021/08/17 03:28:48;;;;;;;1.57;0.50;;;22.50;57.90;;;;;;4946147;28;20246;-73
2021/08/17 03:31:16;;;;;;;1.37;0.40;;;22.30;58.10;;;;;;4976967;28;20298;-63
2021/08/17 03:33:44;;;;;;;1.00;0.50;;;23.10;58.60;;;;;;4950230;28;20184;-72
2021/08/17 03:36:15;;;;;;;16.00;2.10;;;23.30;57.00;;;;;;4957211;28;20631;-76
2021/08/17 03:38:42;;;;;;;3.80;0.60;;;23.10;57.30;;;;;;4955842;28;20278;-70
2021/08/17 03:41:17;;;;;;;4.13;0.70;;;22.50;57.90;;;;;;4950928;28;20253;-68
2021/08/17 03:43:45;;;;;;;0.77;0.50;;;21.90;58.40;;;;;;4936688;28;20195;-68
2021/08/17 03:46:55;;;;;;;1.70;0.67;;;21.60;58.90;;;;;;4956352;28;20578;-65
2021/08/17 03:49:22;;;;;;;68.70;6.57;;;22.30;58.70;;;;;;4939926;29;20199;-70
2021/08/17 03:51:49;;;;;;;44.20;3.87;;;21.80;58.40;;;;;;4948666;28;20219;-67
2021/08/17 03:54:17;;;;;;;13.43;1.37;;;22.40;58.40;;;;;;4953484;28;20225;-65
2021/08/17 03:56:44;;;;;;;12.27;1.80;;;22.60;57.60;;;;;;4954146;28;20183;-70
2021/08/17 03:59:11;;;;;;;4.43;0.63;;;22.90;57.20;;;;;;4955086;28;20246;-73
2021/08/17 04:01:38;;;;;;;30.90;2.90;;;23.10;57.00;;;;;;4958424;28;20681;-66
2021/08/17 04:04:06;;;;;;;2.07;0.70;;;22.90;57.10;;;;;;4955228;28;20183;-64
2021/08/17 04:06:33;;;;;;;2.40;0.80;;;22.70;57.10;;;;;;4955982;28;20187;-67
2021/08/17 04:09:00;;;;;;;4.30;0.73;;;22.90;57.30;;;;;;4949701;28;20188;-61
2021/08/17 04:11:28;;;;;;;4.23;0.57;;;22.70;56.10;;;;;;4948211;28;20303;-65
2021/08/17 04:13:55;;;;;;;2.13;0.67;;;22.20;56.70;;;;;;4947180;28;20175;-59
2021/08/17 04:16:23;;;;;;;1.90;0.70;;;21.70;58.30;;;;;;4952893;28;20191;-60
2021/08/17 04:18:50;;;;;;;1.60;0.60;;;21.60;58.60;;;;;;4947933;28;20266;-61
2021/08/17 04:21:17;;;;;;;5.17;0.57;;;22.30;58.60;;;;;;4957668;28;20663;-64
2021/08/17 04:23:45;;;;;;;2.93;0.60;;;23.10;57.00;;;;;;4949745;28;20195;-69
2021/08/17 04:26:12;;;;;;;3.03;0.50;;;24.00;56.50;;;;;;4954575;28;20203;-67
2021/08/17 04:28:39;;;;;;;1.80;0.73;;;24.30;56.10;;;;;;4953200;28;20191;-69
2021/08/17 04:31:07;;;;;;;2.63;0.80;;;24.50;56.00;;;;;;4958143;28;20218;-65
2021/08/17 04:33:34;;;;;;;1.33;0.50;;;24.70;55.70;;;;;;4955857;28;20649;-61
2021/08/17 04:36:01;;;;;;;0.63;0.43;;;25.00;55.50;;;;;;4948867;28;20662;-70
2021/08/17 04:38:29;;;;;;;0.60;0.40;;;25.10;55.00;;;;;;4953148;28;20219;-63
2021/08/17 04:40:57;;;;;;;2.30;0.67;;;25.10;54.50;;;;;;4951100;28;20286;-68
2021/08/17 04:43:25;;;;;;;2.47;0.33;;;24.80;54.90;;;;;;4953240;28;20679;-65
2021/08/17 04:45:53;;;;;;;1.57;0.40;;;24.70;54.90;;;;;;4957412;28;20653;-64
2021/08/17 04:48:20;;;;;;;2.53;0.50;;;24.70;54.70;;;;;;4955979;28;20194;-61
2021/08/17 04:50:48;;;;;;;1.80;0.90;;;24.60;55.60;;;;;;4955544;28;20218;-69
2021/08/17 04:53:16;;;;;;;1.17;0.53;;;24.50;55.50;;;;;;4954995;28;20191;-66
2021/08/17 04:55:43;;;;;;;3.13;0.97;;;24.40;55.10;;;;;;4947818;28;20282;-69
2021/08/17 04:58:10;;;;;;;3.13;0.90;;;25.00;54.90;;;;;;4949179;28;20184;-60
2021/08/17 05:00:44;;;;;;;1.23;0.50;;;25.40;54.80;;;;;;4953274;28;20187;-63
2021/08/17 05:03:12;;;;;;;2.53;0.50;;;25.40;53.90;;;;;;4950067;28;20195;-66
2021/08/17 05:05:39;;;;;;;0.87;0.40;;;24.50;54.70;;;;;;4955776;28;20195;-62
2021/08/17 05:08:11;;;;;;;0.83;0.30;;;24.80;55.00;;;;;;4954863;28;20701;-61
2021/08/17 05:10:39;;;;;;;2.50;0.50;;;24.60;54.50;;;;;;4962285;28;20214;-60
2021/08/17 05:13:06;;;;;;;1.27;0.63;;;24.90;54.30;;;;;;4948248;28;20183;-59
2021/08/17 05:15:34;;;;;;;2.97;0.50;;;24.80;54.30;;;;;;4952552;28;20218;-59
2021/08/17 05:18:05;;;;;;;2.33;0.50;;;24.70;54.40;;;;;;4945288;28;20184;-59
2021/08/17 05:20:33;;;;;;;1.00;0.60;;;24.40;55.00;;;;;;4952059;28;20195;-60
2021/08/17 05:23:01;;;;;;;2.67;0.40;;;24.50;54.60;;;;;;4951087;28;20257;-60
2021/08/17 05:25:28;;;;;;;1.67;0.40;;;24.20;55.80;;;;;;4954196;28;20183;-59
2021/08/17 05:27:55;;;;;;;2.27;0.80;;;23.90;55.20;;;;;;4951457;28;20234;-59
2021/08/17 05:30:23;;;;;;;3.50;0.67;;;23.80;55.80;;;;;;4953947;28;20207;-61
2021/08/17 05:32:51;;;;;;;6.40;0.77;;;23.60;56.70;;;;;;4947100;28;20202;-60
2021/08/17 05:35:19;;;;;;;2.40;0.53;;;23.10;55.80;;;;;;4950934;28;20207;-59
2021/08/17 05:37:46;;;;;;;3.17;0.50;;;23.40;56.40;;;;;;4951948;28;20270;-59
2021/08/17 05:40:14;;;;;;;1.50;0.57;;;23.20;56.10;;;;;;4960952;28;20187;-61
2021/08/17 05:42:41;;;;;;;1.50;0.40;;;23.00;56.80;;;;;;4957245;28;20183;-61
2021/08/17 05:45:09;;;;;;;2.83;0.60;;;23.60;57.10;;;;;;4948105;28;20281;-59
2021/08/17 05:47:43;;;;;;;4.23;0.70;;;23.70;56.60;;;;;;4963696;28;20187;-59
2021/08/17 05:50:11;;;;;;;4.03;0.80;;;22.70;58.00;;;;;;4964740;28;20273;-59
2021/08/17 05:52:38;;;;;;;2.93;0.80;;;22.80;58.20;;;;;;4951849;28;20282;-59
2021/08/17 05:55:08;;;;;;;1.23;0.50;;;23.00;58.50;;;;;;4936092;29;20172;-59
2021/08/17 05:57:35;;;;;;;1.27;0.50;;;23.10;58.50;;;;;;4930399;28;20187;-59
2021/08/17 06:00:05;;;;;;;0.77;0.40;;;23.50;57.70;;;;;;4941947;29;20228;-59
2021/08/17 06:02:33;;;;;;;1.77;0.53;;;22.90;58.70;;;;;;4960960;28;20241;-60
2021/08/17 06:05:00;;;;;;;0.60;0.33;;;22.70;59.10;;;;;;4957387;28;20207;-58
2021/08/17 06:07:27;;;;;;;1.20;0.40;;;21.50;60.20;;;;;;4964876;28;20668;-59
2021/08/17 06:09:55;;;;;;;3.80;0.80;;;21.00;61.50;;;;;;4955342;28;20681;-59
2021/08/17 06:12:24;;;;;;;4.27;0.53;;;21.50;61.40;;;;;;4966627;28;20209;-59
2021/08/17 06:14:54;;;;;;;1.47;0.60;;;21.60;61.30;;;;;;4970813;28;20552;-60
2021/08/17 06:17:21;;;;;;;2.17;0.57;;;21.60;61.70;;;;;;4954893;29;20188;-60
2021/08/17 06:19:49;;;;;;;2.87;0.50;;;21.80;60.80;;;;;;4971971;28;20214;-59
2021/08/17 06:22:16;;;;;;;0.73;0.40;;;21.80;60.90;;;;;;4961147;28;20192;-60
2021/08/17 06:24:43;;;;;;;1.67;0.70;;;21.60;60.70;;;;;;4946284;28;20187;-59
2021/08/17 06:27:10;;;;;;;3.97;0.60;;;21.10;62.00;;;;;;4973058;28;20709;-63
2021/08/17 06:29:38;;;;;;;4.27;0.50;;;20.20;62.40;;;;;;4950939;28;20266;-59
2021/08/17 06:32:05;;;;;;;1.50;1.40;;;19.40;64.50;;;;;;4938626;28;20229;-58
2021/08/17 06:34:32;;;;;;;3.53;1.50;;;19.00;65.10;;;;;;4956211;28;20182;-59
2021/08/17 06:37:00;;;;;;;4.77;1.50;;;18.60;66.40;;;;;;4973821;28;20167;-58
2021/08/17 06:39:27;;;;;;;2.83;0.73;;;18.50;66.60;;;;;;4958467;28;20227;-60
2021/08/17 06:41:54;;;;;;;4.47;0.70;;;18.10;67.30;;;;;;4964254;28;20182;-62
2021/08/17 06:44:22;;;;;;;4.87;0.60;;;18.10;68.40;;;;;;4950558;28;20196;-60
2021/08/17 06:46:49;;;;;;;2.20;0.70;;;18.20;68.40;;;;;;4950172;28;20207;-67
2021/08/17 06:49:16;;;;;;;2.57;0.40;;;18.00;68.30;;;;;;4955241;28;20182;-59
2021/08/17 06:51:44;;;;;;;1.43;0.70;;;17.80;69.00;;;;;;4950597;28;20222;-59
2021/08/17 06:54:11;;;;;;;4.00;1.10;;;17.70;69.40;;;;;;4958646;28;20186;-59
2021/08/17 06:56:38;;;;;;;2.83;0.80;;;17.60;70.00;;;;;;4966394;28;20566;-62
2021/08/17 06:59:06;;;;;;;3.33;0.97;;;17.40;70.50;;;;;;4965773;28;20182;-62
2021/08/17 07:01:33;;;;;;;2.07;0.80;;;17.50;71.00;;;;;;4973868;28;20224;-60
2021/08/17 07:04:00;;;;;;;1.00;0.50;;;17.40;70.80;;;;;;4973781;28;20190;-61
2021/08/17 07:06:28;;;;;;;1.70;0.73;;;17.30;70.60;;;;;;4973064;28;20186;-63
2021/08/17 07:08:55;;;;;;;4.03;0.60;;;17.20;70.90;;;;;;4952922;28;20206;-59
2021/08/17 07:11:23;;;;;;;2.23;0.60;;;17.20;71.10;;;;;;4955337;28;20248;-59
2021/08/17 07:13:50;;;;;;;2.73;0.53;;;17.10;71.60;;;;;;4967273;28;20173;-58
2021/08/17 07:16:18;;;;;;;3.40;0.63;;;17.00;72.10;;;;;;4945210;28;20185;-61
2021/08/17 07:18:45;;;;;;;3.47;0.57;;;17.00;72.40;;;;;;4945076;28;20212;-59
2021/08/17 07:21:12;;;;;;;6.03;2.37;;;17.00;72.60;;;;;;4956105;28;20681;-58
2021/08/17 07:23:39;;;;;;;5.53;1.90;;;17.00;73.00;;;;;;4943904;28;20187;-58
2021/08/17 07:26:07;;;;;;;2.13;1.70;;;17.00;72.50;;;;;;4945983;28;20194;-58
2021/08/17 07:28:34;;;;;;;5.63;2.30;;;16.80;73.10;;;;;;4953806;28;20578;-60
2021/08/17 07:31:02;;;;;;;2.30;0.80;;;16.70;73.80;;;;;;4954391;28;20355;-58
2021/08/17 07:33:29;;;;;;;3.83;0.67;;;16.70;73.20;;;;;;4950565;28;20178;-58
2021/08/17 07:35:57;;;;;;;1.57;0.60;;;16.60;73.70;;;;;;4945049;28;20184;-62
2021/08/17 07:38:24;;;;;;;2.47;0.60;;;16.60;74.60;;;;;;4960004;28;20225;-60
2021/08/17 07:40:52;;;;;;;3.70;0.80;;;16.60;74.50;;;;;;4947761;28;20195;-58
2021/08/17 07:43:19;;;;;;;1.67;0.70;;;16.40;74.70;;;;;;4945495;28;20242;-59
2021/08/17 07:45:46;;;;;;;4.40;0.97;;;16.50;75.10;;;;;;4955356;28;20189;-59
2021/08/17 07:48:14;;;;;;;5.97;0.90;;;16.50;75.90;;;;;;4969708;28;20809;-61
2021/08/17 07:50:42;;;;;;;1.00;0.50;;;16.40;75.50;;;;;;4958518;28;20223;-60
2021/08/17 07:53:10;;;;;;;4.43;0.60;;;16.30;76.40;;;;;;4963279;28;20259;-59
2021/08/17 07:55:38;;;;;;;2.57;0.73;;;16.20;76.80;;;;;;4947615;28;20312;-59
2021/08/17 07:58:06;;;;;;;2.30;0.63;;;16.10;77.10;;;;;;4970042;28;20186;-59
2021/08/17 08:00:33;;;;;;;3.37;0.73;;;16.10;77.20;;;;;;4967246;28;20180;-60
2021/08/17 08:03:01;;;;;;;2.50;1.00;;;16.00;77.80;;;;;;4948281;28;20553;-60
2021/08/17 08:05:28;;;;;;;4.70;1.00;;;15.90;78.20;;;;;;4948574;29;20190;-60
2021/08/17 08:07:55;;;;;;;2.10;0.80;;;16.00;78.50;;;;;;4953215;29;20186;-60
2021/08/17 08:10:23;;;;;;;0.93;0.63;;;16.00;78.70;;;;;;4953501;28;20215;-59
2021/08/17 08:12:50;;;;;;;2.57;0.90;;;15.90;78.60;;;;;;4942465;29;20195;-59
2021/08/17 08:15:18;;;;;;;2.80;0.70;;;15.80;79.20;;;;;;4952653;29;20186;-59
2021/08/17 08:17:45;;;;;;;1.27;0.70;;;15.80;79.70;;;;;;4956650;29;20654;-59
2021/08/17 08:20:13;;;;;;;2.27;0.90;;;15.90;79.60;;;;;;4947731;28;20221;-59
2021/08/17 08:22:41;;;;;;;4.30;0.87;;;15.80;79.30;;;;;;4947536;28;20184;-59
2021/08/17 08:25:09;;;;;;;4.40;0.90;;;15.70;79.80;;;;;;4941541;28;20534;-60
2021/08/17 08:27:37;;;;;;;1.53;0.90;;;15.60;80.50;;;;;;4950112;29;20183;-60
2021/08/17 08:30:06;;;;;;;2.60;0.90;;;15.60;80.70;;;;;;4954841;29;20549;-64
2021/08/17 08:32:34;;;;;;;3.17;1.00;;;15.60;80.70;;;;;;4954987;29;20239;-60
2021/08/17 08:35:06;;;;;;;3.73;1.97;;;15.50;80.60;;;;;;4944209;29;20188;-59
2021/08/17 08:37:33;;;;;;;8.87;6.03;;;15.50;81.20;;;;;;4944110;28;20202;-62
2021/08/17 08:40:01;;;;;;;16.03;8.03;;;15.50;80.90;;;;;;4943793;29;20183;-59
2021/08/17 08:42:28;;;;;;;2.63;1.40;;;15.40;80.90;;;;;;4951292;29;20275;-62
2021/08/17 08:44:55;;;;;;;3.90;1.10;;;15.40;81.20;;;;;;4949220;29;20273;-61
2021/08/17 08:47:23;;;;;;;3.53;1.20;;;15.40;81.20;;;;;;4941643;28;20242;-63
2021/08/17 08:49:53;;;;;;;2.67;1.50;;;15.40;81.70;;;;;;4953871;29;20176;-61
2021/08/17 08:52:22;;;;;;;6.00;2.10;;;15.40;82.30;;;;;;4954425;28;20679;-59
2021/08/17 08:54:49;;;;;;;5.33;2.30;;;15.40;82.50;;;;;;4955725;29;20183;-60
2021/08/17 08:57:17;;;;;;;6.80;2.10;;;15.30;82.30;;;;;;4945163;29;20179;-59
2021/08/17 08:59:45;;;;;;;6.10;2.03;;;15.30;82.70;;;;;;4954130;29;20262;-69
2021/08/17 09:02:14;;;;;;;6.07;1.80;;;15.20;82.60;;;;;;4952965;28;20234;-64
2021/08/17 09:04:52;;;;;;;5.17;1.70;;;15.20;83.20;;;;;;4952244;29;20516;-59
2021/08/17 09:07:39;;;;;;;3.03;1.47;;;15.20;83.30;;;;;;4962000;28;20254;-71
2021/08/17 09:10:17;;;;;;;4.37;1.43;;;15.20;83.50;;;;;;4953341;28;20215;-60
2021/08/17 09:12:49;;;;;;;8.67;1.67;;;15.20;83.40;;;;;;4947755;29;20188;-64
2021/08/17 09:15:20;;;;;;;7.47;1.60;;;15.10;83.80;;;;;;4953373;28;20229;-61
2021/08/17 09:18:04;;;;;;;5.30;1.60;;;15.00;84.40;;;;;;4957127;28;20239;-65
2021/08/17 09:20:44;;;;;;;3.77;2.00;;;15.00;84.90;;;;;;4953294;28;20764;-60
2021/08/17 09:23:37;;;;;;;3.00;1.60;;;14.90;85.00;;;;;;4966815;28;20258;-59
2021/08/17 09:26:26;;;;;;;3.80;1.80;;;14.80;84.70;;;;;;4952000;28;20601;-63
2021/08/17 09:29:01;;;;;;;5.67;1.70;;;14.80;85.60;;;;;;4962761;28;20270;-71
2021/08/17 09:31:36;;;;;;;6.90;2.13;;;14.60;86.10;;;;;;4955405;28;20265;-62
2021/08/17 09:34:04;;;;;;;7.90;2.60;;;14.50;86.70;;;;;;4972859;28;20186;-59
2021/08/17 09:36:40;;;;;;;6.47;2.57;;;14.50;87.70;;;;;;4952372;28;20192;-60
2021/08/17 09:39:08;;;;;;;6.87;2.80;;;14.50;88.30;;;;;;4947965;29;20650;-60
2021/08/17 09:41:35;;;;;;;12.77;3.77;;;14.40;88.50;;;;;;4951124;28;20179;-62
2021/08/17 09:44:08;;;;;;;6.60;3.57;;;14.40;88.90;;;;;;4953993;29;20208;-63
2021/08/17 09:46:38;;;;;;;9.57;4.43;;;14.40;89.10;;;;;;4953292;28;20270;-60
2021/08/17 09:49:18;;;;;;;11.70;3.27;;;14.40;89.20;;;;;;4953945;29;20702;-63
2021/08/17 09:51:46;;;;;;;13.97;4.20;;;14.40;89.20;;;;;;4944708;29;20820;-61
2021/08/17 09:54:17;;;;;;;9.20;3.67;;;14.40;90.00;;;;;;4950470;28;20270;-62
2021/08/17 09:56:55;;;;;;;8.00;2.90;;;14.30;89.50;;;;;;4951292;28;20187;-62
2021/08/17 09:59:24;;;;;;;6.97;2.90;;;14.20;90.10;;;;;;4954687;28;20183;-78
2021/08/17 10:01:52;;;;;;;9.20;2.93;;;14.30;90.40;;;;;;4951551;28;20614;-76
2021/08/17 10:04:22;;;;;;;6.73;3.13;;;14.20;90.60;;;;;;4945848;29;20184;-69
2021/08/17 10:07:00;;;;;;;6.50;2.43;;;14.20;90.90;;;;;;4945843;29;20202;-66
2021/08/17 10:09:29;;;;;;;5.77;2.23;;;14.10;91.00;;;;;;4952967;29;20650;-68
2021/08/17 10:11:56;;;;;;;7.27;2.67;;;14.10;91.40;;;;;;4953706;28;20258;-68
2021/08/17 10:14:24;;;;;;;5.83;2.77;;;14.10;91.70;;;;;;4953062;28;20175;-69
2021/08/17 10:16:51;;;;;;;7.03;2.50;;;14.00;91.90;;;;;;4949375;28;20214;-72
2021/08/17 10:19:24;;;;;;;8.87;2.90;;;14.00;92.10;;;;;;4944099;29;20189;-69
2021/08/17 10:21:54;;;;;;;7.73;2.80;;;14.00;92.20;;;;;;4939954;29;20187;-67
2021/08/17 10:24:25;;;;;;;9.10;2.60;;;14.00;92.50;;;;;;4952820;28;20190;-72
2021/08/17 10:27:31;;;;;;;5.77;2.53;;;13.90;92.80;;;;;;4954440;28;20218;-69
2021/08/17 10:30:21;;;;;;;3.67;1.97;;;13.90;92.80;;;;;;4954414;29;20225;-65
2021/08/17 10:32:59;;;;;;;7.00;2.30;;;13.90;93.10;;;;;;4952163;29;20601;-69
2021/08/17 10:35:29;;;;;;;5.47;2.17;;;13.90;93.30;;;;;;4952074;28;20658;-68
2021/08/17 10:38:12;;;;;;;10.33;2.70;;;13.80;93.40;;;;;;4954558;28;20326;-68
2021/08/17 10:40:51;;;;;;;7.10;2.13;;;13.80;93.80;;;;;;4935473;28;20188;-66
2021/08/17 10:43:42;;;;;;;9.00;2.57;;;13.80;93.80;;;;;;4949820;28;20232;-67
2021/08/17 10:46:13;;;;;;;10.40;2.40;;;13.70;94.10;;;;;;4947917;29;20192;-67
2021/08/17 10:51:22;;;;;;;5.77;1.70;;;13.70;94.60;;;;;;4960420;28;20211;-73
2021/08/17 10:54:17;;;;;;;10.00;2.50;;;13.60;94.90;;;;;;4954447;28;20638;-67
2021/08/17 10:56:47;;;;;;;9.53;2.40;;;13.60;95.10;;;;;;4948570;29;20518;-66
2021/08/17 10:59:35;;;;;;;7.20;2.10;;;13.60;95.30;;;;;;4949147;28;20191;-66
2021/08/17 11:02:02;;;;;;;6.40;2.33;;;13.50;95.50;;;;;;4945065;29;20191;-77
2021/08/17 11:04:46;;;;;;;10.80;3.20;;;13.50;96.00;;;;;;4953071;28;20187;-71
2021/08/17 11:07:40;;;;;;;9.43;2.27;;;13.50;95.90;;;;;;4954346;29;20541;-78
2021/08/17 11:10:10;;;;;;;6.80;2.53;;;13.40;95.70;;;;;;4945361;28;20187;-75
2021/08/17 11:12:39;;;;;;;10.53;2.77;;;13.40;96.20;;;;;;4952658;28;20198;-77
2021/08/17 11:15:09;;;;;;;8.03;3.50;;;13.30;96.40;;;;;;4954239;29;20175;-77
2021/08/17 11:17:36;;;;;;;12.83;3.20;;;13.30;96.60;;;;;;4953934;28;20211;-76
2021/08/17 11:20:06;;;;;;;11.57;3.37;;;13.20;96.50;;;;;;4953864;29;20183;-77
2021/08/17 11:22:36;;;;;;;6.70;2.83;;;13.20;96.50;;;;;;4950001;29;20242;-75
2021/08/17 11:25:09;;;;;;;7.90;3.60;;;13.20;96.50;;;;;;4951725;29;20226;-75
2021/08/17 11:27:43;;;;;;;12.63;4.20;;;13.30;96.60;;;;;;4941386;28;20206;-77
2021/08/17 11:30:13;;;;;;;7.40;3.60;;;13.30;96.70;;;;;;4954100;29;20211;-68
2021/08/17 11:32:48;;;;;;;13.87;3.90;;;13.20;97.00;;;;;;4941146;29;20194;-72
2021/08/17 11:35:18;;;;;;;5.23;2.80;;;13.20;96.90;;;;;;4952040;28;20198;-78
2021/08/17 11:37:49;;;;;;;11.63;2.77;;;13.10;96.60;;;;;;4942103;28;20223;-76
2021/08/17 11:40:24;;;;;;;3.70;2.40;;;13.10;96.50;;;;;;4950650;28;20194;-77
2021/08/17 11:42:57;;;;;;;6.30;2.30;;;13.10;96.60;;;;;;4946574;28;20194;-78
2021/08/17 11:45:29;;;;;;;4.60;2.53;;;13.10;96.60;;;;;;4949702;28;20180;-77
2021/08/17 11:47:59;;;;;;;4.90;2.40;;;13.00;96.50;;;;;;4953685;29;20281;-77
2021/08/17 11:50:27;;;;;;;7.77;2.70;;;13.00;96.60;;;;;;4957201;29;20219;-74
2021/08/17 11:53:02;;;;;;;6.93;2.90;;;12.90;96.70;;;;;;4954134;29;20536;-73
2021/08/17 11:55:37;;;;;;;4.37;2.80;;;12.90;96.80;;;;;;4957867;29;20226;-78
2021/08/17 11:58:09;;;;;;;6.03;2.73;;;12.80;96.80;;;;;;4943112;29;20184;-77
2021/08/17 12:00:37;;;;;;;3.70;2.60;;;12.80;96.80;;;;;;4957253;28;20195;-76
2021/08/17 12:03:08;;;;;;;7.23;2.77;;;12.80;96.90;;;;;;4958333;28;20218;-77
2021/08/17 12:05:38;;;;;;;6.07;2.77;;;12.70;96.80;;;;;;4971904;28;20178;-76
2021/08/17 12:08:09;;;;;;;7.23;2.70;;;12.70;97.00;;;;;;4976593;28;20185;-76
2021/08/17 12:10:39;;;;;;;7.53;3.23;;;12.60;97.00;;;;;;4961791;28;20245;-77
2021/08/17 12:13:14;;;;;;;8.00;3.20;;;12.50;97.20;;;;;;4948224;28;20190;-76
2021/08/17 12:15:58;;;;;;;6.40;2.97;;;12.40;97.30;;;;;;4952116;28;20179;-76
2021/08/17 12:18:31;;;;;;;7.10;2.83;;;12.40;97.30;;;;;;4947178;29;20183;-77
2021/08/17 12:21:10;;;;;;;9.13;3.00;;;12.50;97.10;;;;;;4953375;29;20282;-78
2021/08/17 12:23:44;;;;;;;7.13;3.07;;;12.30;96.60;;;;;;4955506;28;20191;-76
2021/08/17 12:26:14;;;;;;;8.83;3.17;;;12.20;96.90;;;;;;4938214;29;20267;-77
2021/08/17 12:28:43;;;;;;;7.83;2.50;;;12.20;97.20;;;;;;4956080;29;20221;-76
2021/08/17 12:31:19;;;;;;;4.57;2.60;;;12.10;97.40;;;;;;4948774;29;20222;-75
2021/08/17 12:33:53;;;;;;;4.37;2.23;;;12.00;97.10;;;;;;4946213;29;20187;-77
2021/08/17 12:36:48;;;;;;;3.40;2.13;;;12.00;97.40;;;;;;4948288;29;20188;-77
2021/08/17 12:39:20;;;;;;;4.07;2.50;;;11.90;97.20;;;;;;4955455;29;20268;-74
2021/08/17 12:41:50;;;;;;;6.87;3.03;;;11.80;97.20;;;;;;4948590;29;20193;-75
2021/08/17 12:44:29;;;;;;;6.63;2.53;;;11.70;97.50;;;;;;4953248;28;20678;-78
2021/08/17 12:47:14;;;;;;;10.00;2.87;;;11.70;97.60;;;;;;4953397;28;20193;-67
2021/08/17 12:49:55;;;;;;;4.10;2.60;;;11.70;97.80;;;;;;4954931;29;20186;-68
2021/08/17 12:52:25;;;;;;;5.53;2.53;;;11.70;97.90;;;;;;4956308;28;20226;-76
2021/08/17 12:55:13;;;;;;;13.73;2.97;;;11.70;97.70;;;;;;4946148;28;20207;-68
2021/08/17 12:57:46;;;;;;;5.57;2.50;;;11.60;98.10;;;;;;4952335;29;20303;-73
2021/08/17 13:00:16;;;;;;;10.53;4.10;;;11.60;98.10;;;;;;4947471;28;20227;-66
2021/08/17 13:02:44;;;;;;;18.77;2.83;;;11.60;98.60;;;;;;4955381;29;20630;-68
2021/08/17 13:05:13;;;;;;;10.50;3.10;;;11.60;98.50;;;;;;4948283;28;20199;-67
2021/08/17 13:07:40;;;;;;;4.93;2.57;;;11.60;98.80;;;;;;4956145;29;20191;-70